Time;durP1;ratioP1;P1;durP2;ratioP2;P2;SDS_P1;SDS_P2;PMS_P1;PMS_P2;Temp;Humidity;BMP_temperature;BMP_pressure;BME280_temperature;BME280_humidity;BME280_pressure;Samples;Min_cycle;Max_cycle;Signal;HPM_P1;HPM_P2
2022/11/02 00:02:20;;;;;;;13.20;1.95;;;;;;;10.19;100.00;155085.09;5018841;28;20073;-73
2022/11/02 00:04:46;;;;;;;11.38;2.00;;;;;;;10.21;100.00;155090.22;4997271;28;20128;-72
2022/11/02 00:07:11;;;;;;;10.25;1.95;;;;;;;10.16;100.00;155078.72;4983767;28;20046;-73
2022/11/02 00:09:37;;;;;;;10.50;2.15;;;;;;;10.15;100.00;155076.13;4974289;28;20133;-73
2022/11/02 00:12:03;;;;;;;14.63;2.30;;;;;;;10.14;100.00;155074.84;4984205;28;20049;-73
2022/11/02 00:14:29;;;;;;;12.30;2.28;;;;;;;10.17;100.00;155079.97;4994303;28;20097;-73
2022/11/02 00:16:54;;;;;;;12.18;2.20;;;;;;;10.20;100.00;155088.97;5006297;28;20034;-73
2022/11/02 00:19:20;;;;;;;10.65;2.08;;;;;;;10.22;100.00;155094.09;5001583;28;20329;-73
2022/11/02 00:21:46;;;;;;;8.68;1.70;;;;;;;10.20;100.00;155088.97;4999027;28;20038;-73
2022/11/02 00:24:11;;;;;;;12.55;2.40;;;;;;;10.24;100.00;155099.22;4969849;28;20084;-73
2022/11/02 00:26:37;;;;;;;10.13;1.83;;;;;;;10.25;100.00;155100.53;4990309;28;20034;-73
2022/11/02 00:29:07;;;;;;;10.43;1.85;;;;;;;10.16;100.00;155077.44;4982841;28;20525;-74
2022/11/02 00:31:32;;;;;;;9.55;1.65;;;;;;;10.21;100.00;155090.22;4986340;28;20065;-73
2022/11/02 00:33:58;;;;;;;10.90;2.00;;;;;;;10.17;100.00;155079.97;5003117;28;20030;-73
2022/11/02 00:36:24;;;;;;;10.10;2.08;;;;;;;10.23;100.00;155095.41;4970021;28;20116;-73
2022/11/02 00:38:50;;;;;;;9.32;1.63;;;;;;;10.21;100.00;155090.22;5006198;28;20045;-74
2022/11/02 00:41:18;;;;;;;14.77;2.17;;;;;;;10.22;100.00;155094.09;5005389;28;20105;-73
2022/11/02 00:43:44;;;;;;;7.18;1.98;;;;;;;10.26;100.00;155103.06;4990949;28;20621;-73
2022/11/02 00:46:10;;;;;;;15.35;1.98;;;;;;;10.28;100.00;155109.53;4989936;28;20061;-74
2022/11/02 00:48:35;;;;;;;14.88;2.00;;;;;;;10.24;100.00;155097.94;4995892;28;20033;-73
2022/11/02 00:51:01;;;;;;;10.85;2.38;;;;;;;10.25;100.00;155101.81;5006750;28;20371;-73
2022/11/02 00:53:28;;;;;;;10.52;2.05;;;;;;;10.35;100.00;155124.94;4973963;28;20030;-73
2022/11/02 00:55:55;;;;;;;11.55;2.20;;;;;;;10.31;100.00;155115.97;5007968;28;20037;-73
2022/11/02 00:58:21;;;;;;;12.60;2.03;;;;;;;10.38;100.00;155132.63;4991337;28;20088;-73
2022/11/02 01:00:48;;;;;;;11.40;2.30;;;;;;;10.37;100.00;155131.34;5007412;28;20038;-73
2022/11/02 01:03:14;;;;;;;8.57;1.70;;;;;;;10.41;100.00;155140.34;5005431;28;20462;-73
2022/11/02 01:05:41;;;;;;;10.98;2.10;;;;;;;10.41;100.00;155141.59;5006138;28;20057;-73
2022/11/02 01:08:07;;;;;;;12.77;2.08;;;;;;;10.45;100.00;155150.59;4989818;28;20064;-74
2022/11/02 01:10:33;;;;;;;11.07;1.92;;;;;;;10.36;100.00;155127.50;4989645;28;20813;-73
2022/11/02 01:13:00;;;;;;;9.80;1.95;;;;;;;10.33;100.00;155122.38;5020776;28;20046;-73
2022/11/02 01:15:26;;;;;;;8.75;2.10;;;;;;;10.28;100.00;155108.19;4989351;28;20774;-73
2022/11/02 01:17:51;;;;;;;11.07;1.92;;;;;;;10.29;100.00;155112.06;5005322;28;20668;-73
2022/11/02 01:20:17;;;;;;;9.77;1.88;;;;;;;10.34;100.00;155123.69;4990012;28;20044;-73
2022/11/02 01:22:42;;;;;;;10.68;1.88;;;;;;;10.30;100.00;155113.34;5003184;28;20396;-73
2022/11/02 01:25:08;;;;;;;11.07;1.88;;;;;;;10.24;100.00;155097.94;5022274;28;20496;-73
2022/11/02 01:27:34;;;;;;;10.27;1.70;;;;;;;10.28;100.00;155108.19;5005658;28;20131;-73
2022/11/02 01:29:59;;;;;;;12.20;2.00;;;;;;;10.17;100.00;155081.31;5003126;28;20523;-73
2022/11/02 01:32:29;;;;;;;12.93;2.05;;;;;;;10.15;100.00;155076.13;4988248;28;20037;-74
2022/11/02 01:34:55;;;;;;;12.55;1.88;;;;;;;10.18;100.00;155083.84;5021759;28;20073;-73
2022/11/02 01:37:20;;;;;;;11.80;1.88;;;;;;;10.13;100.00;155072.31;5004525;28;21099;-73
2022/11/02 01:39:46;;;;;;;12.40;1.90;;;;;;;10.06;100.00;155054.34;5015226;28;20111;-74
2022/11/02 01:42:21;;;;;;;10.50;1.88;;;;;;;10.05;100.00;155050.50;4989826;28;20053;-74
2022/11/02 01:44:47;;;;;;;13.50;2.20;;;;;;;10.06;100.00;155053.09;4986365;28;20046;-73
2022/11/02 01:47:31;;;;;;;12.88;1.77;;;;;;;10.16;100.00;155077.44;4983439;28;20030;-73
2022/11/02 01:50:05;;;;;;;17.80;2.10;;;;;;;10.20;100.00;155087.69;5000511;28;20044;-73
2022/11/02 01:52:36;;;;;;;11.88;2.10;;;;;;;10.22;100.00;155092.81;4982912;28;20037;-73
2022/11/02 01:55:15;;;;;;;12.75;1.70;;;;;;;10.23;100.00;155095.41;5001385;28;20038;-74
2022/11/02 01:57:46;;;;;;;16.35;3.40;;;;;;;10.28;100.00;155108.19;5000273;28;20036;-73
2022/11/02 02:00:14;;;;;;;10.43;1.83;;;;;;;10.27;100.00;155105.66;4993884;28;20088;-73
2022/11/02 02:03:11;;;;;;;14.68;2.40;;;;;;;10.25;100.00;155100.53;4999678;28;20132;-73
2022/11/02 02:05:42;;;;;;;12.50;2.17;;;;;;;10.23;100.00;155096.69;5002327;28;20049;-74
2022/11/02 02:08:12;;;;;;;10.70;1.90;;;;;;;10.30;100.00;155113.34;4971290;28;20084;-73
2022/11/02 02:10:38;;;;;;;12.80;2.20;;;;;;;10.34;100.00;155123.69;5002052;28;20073;-73
2022/11/02 02:13:06;;;;;;;12.85;1.73;;;;;;;10.27;100.00;155106.94;5001529;28;20704;-74
2022/11/02 02:16:09;;;;;;;11.20;2.45;;;;;;;10.28;100.00;155108.19;5003819;28;20045;-73
2022/11/02 02:18:45;;;;;;;15.88;2.30;;;;;;;10.36;100.00;155128.81;5004986;28;20036;-74
2022/11/02 02:21:37;;;;;;;13.00;2.17;;;;;;;10.31;100.00;155117.22;5003427;28;20900;-72
2022/11/02 02:24:40;;;;;;;17.23;2.55;;;;;;;10.27;100.00;155106.94;4999070;28;20041;-72
2022/11/02 02:27:43;;;;;;;10.00;1.85;;;;;;;10.28;100.00;155108.19;4982243;28;20046;-73
2022/11/02 02:30:10;;;;;;;19.33;2.63;;;;;;;10.31;100.00;155117.22;4985481;28;20066;-73
2022/11/02 02:32:47;;;;;;;15.90;2.85;;;;;;;10.26;100.00;155103.06;4970472;28;20044;-74
2022/11/02 02:35:25;;;;;;;12.60;2.53;;;;;;;10.33;100.00;155121.09;4970495;28;20049;-73
2022/11/02 02:37:59;;;;;;;17.05;2.28;;;;;;;10.29;100.00;155112.06;4972218;28;20041;-73
2022/11/02 02:40:35;;;;;;;14.43;2.05;;;;;;;10.34;100.00;155123.69;4993287;28;20026;-73
2022/11/02 02:43:14;;;;;;;10.00;2.20;;;;;;;10.38;100.00;155133.94;5004732;28;20049;-73
2022/11/02 02:45:46;;;;;;;13.90;2.22;;;;;;;10.44;100.00;155149.31;4959200;28;20797;-73
2022/11/02 02:48:22;;;;;;;11.93;1.98;;;;;;;10.47;100.00;155157.03;5003748;28;20038;-73
2022/11/02 02:51:05;;;;;;;12.55;1.92;;;;;;;10.47;100.00;155155.72;4971867;28;20073;-73
2022/11/02 02:53:41;;;;;;;9.45;2.08;;;;;;;10.49;100.00;155160.84;4983329;28;20034;-73
2022/11/02 02:56:09;;;;;;;11.57;2.20;;;;;;;10.44;100.00;155149.31;4988423;28;20524;-73
2022/11/02 02:58:43;;;;;;;9.88;1.50;;;;;;;10.40;100.00;155139.06;4968817;28;20069;-74
2022/11/02 03:01:14;;;;;;;12.13;1.75;;;;;;;10.40;100.00;155137.78;4986606;28;20046;-73
2022/11/02 03:03:42;;;;;;;12.10;2.55;;;;;;;10.32;100.00;155119.81;5002495;28;20049;-73
2022/11/02 03:06:32;;;;;;;10.88;1.90;;;;;;;10.31;100.00;155115.97;5004969;28;20056;-73
2022/11/02 03:09:04;;;;;;;;;;;;;;;10.32;100.00;155119.81;4998704;28;20049;-73
2022/11/02 03:11:33;;;;;;;14.88;2.15;;;;;;;10.25;100.00;155101.81;4988069;28;19978;-73
2022/11/02 03:14:30;;;;;;;13.88;2.60;;;;;;;10.18;100.00;155083.84;5001296;28;20042;-73
2022/11/02 03:17:02;;;;;;;10.93;1.80;;;;;;;10.22;100.00;155092.81;4979190;28;20034;-73
2022/11/02 03:19:51;;;;;;;14.50;2.15;;;;;;;10.21;100.00;155090.22;4986886;28;20406;-73
2022/11/02 03:22:29;;;;;;;13.48;2.17;;;;;;;10.19;100.00;155085.09;4985938;28;20070;-73
2022/11/02 03:25:12;;;;;;;13.60;1.98;;;;;;;10.11;100.00;155065.88;5002243;28;20115;-73
2022/11/02 03:27:53;;;;;;;8.20;1.65;;;;;;;10.08;100.00;155058.22;4976624;28;20094;-73
2022/11/02 03:30:23;;;;;;;10.00;1.80;;;;;;;10.10;100.00;155064.59;5002512;28;20060;-73
2022/11/02 03:33:02;;;;;;;7.82;1.90;;;;;;;10.10;100.00;155064.59;4986937;28;20081;-73
2022/11/02 03:36:00;;;;;;;17.85;2.60;;;;;;;10.04;100.00;155049.22;4964752;28;20105;-72
2022/11/02 03:38:38;;;;;;;11.60;1.90;;;;;;;10.06;100.00;155053.09;4997137;28;20388;-72
2022/11/02 03:41:05;;;;;;;14.18;1.90;;;;;;;10.08;100.00;155058.22;5003854;28;20058;-72
2022/11/02 03:43:35;;;;;;;12.88;2.33;;;;;;;10.07;100.00;155056.91;4995047;28;20128;-73
2022/11/02 03:46:04;;;;;;;11.57;2.00;;;;;;;10.12;100.00;155068.47;4999097;28;20113;-72
2022/11/02 03:48:39;;;;;;;10.75;2.13;;;;;;;10.12;100.00;155069.72;4979245;28;20156;-73
2022/11/02 03:51:11;;;;;;;12.63;2.20;;;;;;;10.14;100.00;155074.84;4999817;28;20096;-73
2022/11/02 03:53:45;;;;;;;12.30;2.30;;;;;;;10.13;100.00;155072.31;4985957;28;20044;-73
2022/11/02 03:56:20;;;;;;;15.18;2.45;;;;;;;10.19;100.00;155086.44;5007237;28;20087;-73
2022/11/02 03:58:45;;;;;;;17.00;2.13;;;;;;;10.20;100.00;155087.69;4987211;28;20569;-73
2022/11/02 04:01:11;;;;;;;10.32;1.98;;;;;;;10.23;100.00;155095.41;5001555;28;20033;-72
2022/11/02 04:03:43;;;;;;;15.27;2.20;;;;;;;10.17;100.00;155081.31;4986001;28;22271;-73
2022/11/02 04:06:11;;;;;;;15.77;2.30;;;;;;;10.07;100.00;155055.63;5017639;28;20033;-73
2022/11/02 04:08:43;;;;;;;12.60;2.22;;;;;;;10.03;100.00;155045.38;4985303;28;20041;-72
2022/11/02 04:16:45;;;;;;;13.23;2.13;;;;;;;9.99;100.00;155035.13;4985199;28;20492;-73
2022/11/02 04:19:27;;;;;;;11.73;2.13;;;;;;;9.97;100.00;155030.00;4988270;28;20495;-73
2022/11/02 04:27:31;;;;;;;17.27;2.55;;;;;;;9.98;100.00;155033.81;5010768;28;20034;-74
2022/11/02 04:29:57;;;;;;;8.65;2.10;;;;;;;9.95;100.00;155026.13;4986450;28;20385;-74
2022/11/02 04:35:13;;;;;;;14.07;2.35;;;;;;;9.97;100.00;155031.25;4980256;28;20042;-73
2022/11/02 04:40:29;;;;;;;14.02;2.00;;;;;;;10.05;100.00;155050.50;4987159;28;20100;-73
2022/11/02 04:42:56;;;;;;;13.07;2.25;;;;;;;9.95;100.00;155026.13;4982952;28;20112;-73
2022/11/02 04:45:23;;;;;;;9.98;1.90;;;;;;;9.88;100.00;155008.19;5002200;28;20409;-74
2022/11/02 04:47:48;;;;;;;10.40;2.10;;;;;;;9.93;100.00;155022.28;5002636;28;20111;-74
2022/11/02 04:50:15;;;;;;;13.27;2.00;;;;;;;9.85;100.00;155001.78;4997280;28;20377;-73
2022/11/02 04:52:42;;;;;;;13.90;2.10;;;;;;;9.88;100.00;155009.44;4968164;28;20479;-73
2022/11/02 04:55:08;;;;;;;14.57;1.88;;;;;;;9.85;100.00;155001.78;4983026;28;20045;-74
2022/11/02 04:57:34;;;;;;;11.93;2.10;;;;;;;9.83;100.00;154996.66;4972375;28;20036;-73
2022/11/02 05:00:00;;;;;;;11.10;2.25;;;;;;;9.79;100.00;154986.34;5015898;28;20070;-73
2022/11/02 05:02:27;;;;;;;9.85;1.95;;;;;;;9.70;100.00;154964.59;4977522;28;20073;-73
2022/11/02 05:04:54;;;;;;;14.00;2.28;;;;;;;9.66;100.00;154954.34;4995405;28;20145;-74
2022/11/02 05:07:20;;;;;;;9.95;2.00;;;;;;;9.71;100.00;154967.13;5017012;28;20042;-73
2022/11/02 05:09:46;;;;;;;15.60;2.03;;;;;;;9.74;100.00;154974.84;4970703;28;20041;-73
2022/11/02 05:12:13;;;;;;;12.77;2.03;;;;;;;9.75;100.00;154977.38;5004930;28;20474;-74
2022/11/02 05:14:39;;;;;;;11.75;1.80;;;;;;;9.64;100.00;154949.16;4994506;28;20087;-74
2022/11/02 05:17:05;;;;;;;11.52;2.13;;;;;;;9.60;100.00;154938.91;4991107;28;20471;-73
2022/11/02 05:19:33;;;;;;;9.75;1.83;;;;;;;9.62;100.00;154942.78;5004680;28;20050;-73
2022/11/02 05:22:00;;;;;;;8.98;2.15;;;;;;;9.58;100.00;154933.78;5007016;28;20038;-73
2022/11/02 05:24:26;;;;;;;12.60;2.13;;;;;;;9.54;100.00;154924.81;4989699;28;20046;-73
2022/11/02 05:26:54;;;;;;;10.68;2.20;;;;;;;9.58;100.00;154933.78;4964757;28;20624;-74
2022/11/02 05:29:23;;;;;;;14.65;2.40;;;;;;;9.66;100.00;154953.03;5006438;28;20104;-73
2022/11/02 05:31:49;;;;;;;16.45;2.40;;;;;;;9.71;100.00;154967.13;5008313;28;20042;-73
2022/11/02 05:34:15;;;;;;;10.32;2.00;;;;;;;9.68;100.00;154959.47;5001891;28;20045;-73
2022/11/02 05:36:41;;;;;;;17.55;2.55;;;;;;;9.77;100.00;154979.97;5005073;28;20050;-72
2022/11/02 05:39:06;;;;;;;14.55;1.85;;;;;;;9.73;100.00;154970.97;5007484;28;20037;-73
2022/11/02 05:41:32;;;;;;;16.17;2.60;;;;;;;9.65;100.00;154951.75;4975933;28;20044;-73
2022/11/02 05:43:58;;;;;;;13.00;2.63;;;;;;;9.68;100.00;154959.47;4991537;28;20222;-73
2022/11/02 05:46:26;;;;;;;13.45;2.17;;;;;;;9.66;100.00;154953.03;5005628;28;20026;-73
2022/11/02 05:48:54;;;;;;;9.27;1.80;;;;;;;9.65;100.00;154950.47;4991507;28;20045;-73
2022/11/02 05:51:20;;;;;;;13.80;2.30;;;;;;;9.62;100.00;154942.78;4990552;28;20042;-72
2022/11/02 05:53:45;;;;;;;17.33;2.80;;;;;;;9.52;100.00;154918.41;4988834;28;20443;-73
2022/11/02 05:56:12;;;;;;;11.98;2.15;;;;;;;9.51;100.00;154915.84;4989950;28;20038;-73
2022/11/02 05:58:38;;;;;;;19.73;2.65;;;;;;;9.42;100.00;154894.06;5007212;28;20030;-72
2022/11/02 06:01:07;;;;;;;16.05;2.67;;;;;;;9.41;100.00;154890.22;5004573;28;20049;-73
2022/11/02 06:03:33;;;;;;;11.88;2.30;;;;;;;9.33;100.00;154871.00;5001628;28;20030;-73
2022/11/02 06:06:01;;;;;;;13.32;2.40;;;;;;;9.34;100.00;154874.84;4980916;28;20081;-73
2022/11/02 06:08:26;;;;;;;13.30;2.30;;;;;;;9.30;100.00;154864.56;5009111;28;20040;-72
2022/11/02 06:10:52;;;;;;;11.20;2.30;;;;;;;9.29;100.00;154862.03;5025249;28;20030;-73
2022/11/02 06:13:18;;;;;;;7.40;1.95;;;;;;;9.29;100.00;154860.75;5008021;28;20034;-73
2022/11/02 06:15:44;;;;;;;13.80;2.42;;;;;;;9.32;100.00;154869.72;5011774;28;20034;-73
2022/11/02 06:18:09;;;;;;;9.30;2.22;;;;;;;9.39;100.00;154885.09;5001197;28;20108;-73
2022/11/02 06:20:35;;;;;;;11.43;2.20;;;;;;;9.41;100.00;154891.50;5008881;28;20037;-72
2022/11/02 06:23:00;;;;;;;13.23;1.80;;;;;;;9.48;100.00;154909.44;4991300;28;20542;-72
2022/11/02 06:25:26;;;;;;;14.38;2.70;;;;;;;9.50;100.00;154913.31;5006753;28;20038;-73
2022/11/02 06:27:55;;;;;;;14.00;2.13;;;;;;;9.58;100.00;154932.53;5007092;28;20034;-73
2022/11/02 06:30:23;;;;;;;11.23;1.98;;;;;;;9.66;100.00;154953.03;4989090;28;20431;-73
2022/11/02 06:32:51;;;;;;;16.65;2.80;;;;;;;9.59;100.00;154936.38;5006895;28;20626;-72
2022/11/02 06:35:18;;;;;;;14.57;3.00;;;;;;;9.63;100.00;154945.38;5005134;28;20033;-73
2022/11/02 06:37:44;;;;;;;14.23;2.30;;;;;;;9.60;100.00;154938.91;4985860;28;20058;-73
2022/11/02 06:40:11;;;;;;;14.85;2.95;;;;;;;9.59;100.00;154935.06;5009591;28;20495;-73
2022/11/02 06:42:38;;;;;;;11.32;2.35;;;;;;;9.58;100.00;154932.53;4997540;28;20053;-73
2022/11/02 06:45:04;;;;;;;15.77;2.60;;;;;;;9.59;100.00;154936.38;5005957;28;20041;-73
2022/11/02 06:47:35;;;;;;;11.95;2.13;;;;;;;9.60;100.00;154938.91;4985150;28;20104;-73
2022/11/02 06:50:01;;;;;;;16.42;2.53;;;;;;;9.65;100.00;154950.47;4986838;28;20036;-73
2022/11/02 06:52:27;;;;;;;12.75;2.10;;;;;;;9.68;100.00;154959.47;5012804;28;20041;-73
2022/11/02 06:54:54;;;;;;;16.67;2.58;;;;;;;9.78;100.00;154982.56;5019449;28;20495;-72
2022/11/02 06:57:20;;;;;;;14.98;2.47;;;;;;;9.86;100.00;155004.31;5008446;28;20034;-73
2022/11/02 06:59:46;;;;;;;12.88;2.30;;;;;;;9.92;100.00;155018.44;4990036;28;20034;-73
2022/11/02 07:02:12;;;;;;;16.25;2.75;;;;;;;10.04;100.00;155047.91;5007377;28;20065;-73
2022/11/02 07:04:38;;;;;;;17.15;2.00;;;;;;;10.08;100.00;155059.47;4982856;28;20116;-73
2022/11/02 07:07:04;;;;;;;13.85;2.25;;;;;;;10.14;100.00;155074.84;4989588;28;20061;-73
2022/11/02 07:09:29;;;;;;;14.63;2.38;;;;;;;10.24;100.00;155099.22;4990682;28;20398;-72
2022/11/02 07:11:55;;;;;;;9.13;1.95;;;;;;;10.24;100.00;155099.22;4987412;28;20039;-73
2022/11/02 07:14:20;;;;;;;13.15;2.20;;;;;;;10.14;100.00;155074.84;5007061;28;20656;-73
2022/11/02 07:16:46;;;;;;;13.50;1.90;;;;;;;10.16;100.00;155077.44;5007297;28;20042;-73
2022/11/02 07:19:12;;;;;;;15.90;2.17;;;;;;;10.24;100.00;155099.22;5004947;28;20041;-73
2022/11/02 07:21:37;;;;;;;10.10;2.45;;;;;;;10.39;100.00;155136.47;4971073;28;20045;-73
2022/11/02 07:24:03;;;;;;;16.75;2.17;;;;;;;10.57;100.00;155180.06;5002847;28;20515;-73
2022/11/02 07:26:29;;;;;;;10.82;1.92;;;;;;;10.57;100.00;155181.41;4991269;28;20029;-73
2022/11/02 07:28:55;;;;;;;14.32;2.28;;;;;;;10.59;100.00;155186.53;5006533;28;20041;-73
2022/11/02 07:31:20;;;;;;;8.90;1.98;;;;;;;10.65;100.00;155200.63;5005765;28;20037;-73
2022/11/02 07:33:46;;;;;;;13.50;2.22;;;;;;;10.60;100.00;155187.78;4964241;28;20057;-73
2022/11/02 07:36:12;;;;;;;12.95;2.00;;;;;;;10.64;100.00;155199.38;5006388;28;20030;-73
2022/11/02 07:38:37;;;;;;;17.73;2.67;;;;;;;10.76;100.00;155227.59;4990290;28;20156;-73
2022/11/02 07:41:03;;;;;;;12.73;2.30;;;;;;;10.73;100.00;155221.16;4989910;28;20034;-73
2022/11/02 07:43:30;;;;;;;12.85;2.60;;;;;;;10.74;100.00;155223.72;4989857;28;20033;-72
2022/11/02 07:46:23;;;;;;;12.43;2.25;;;;;;;10.75;100.00;155225.00;5009738;28;20022;-74
2022/11/02 07:48:49;;;;;;;12.55;2.42;;;;;;;10.81;100.00;155241.69;4990907;28;20030;-73
2022/11/02 07:51:14;;;;;;;12.73;2.17;;;;;;;10.80;100.00;155239.13;5005843;28;20033;-73
2022/11/02 07:53:40;;;;;;;13.57;2.13;;;;;;;10.78;100.00;155234.00;5004514;28;20026;-73
2022/11/02 07:56:06;;;;;;;13.68;2.30;;;;;;;10.82;100.00;155242.97;4987711;28;20069;-73
2022/11/02 07:58:32;;;;;;;10.98;2.40;;;;;;;10.75;100.00;155225.00;4990551;28;20041;-73
2022/11/02 08:00:59;;;;;;;11.57;2.20;;;;;;;10.85;100.00;155250.66;4987039;28;20030;-73
2022/11/02 08:03:26;;;;;;;10.95;1.85;;;;;;;10.98;100.00;155282.72;5005747;28;20025;-73
2022/11/02 08:05:52;;;;;;;14.73;2.00;;;;;;;11.09;100.00;155310.97;5003576;28;20068;-73
2022/11/02 08:08:19;;;;;;;15.90;2.17;;;;;;;11.30;100.00;155363.56;4988645;28;20502;-73
2022/11/02 08:10:47;;;;;;;10.02;2.05;;;;;;;11.44;100.00;155399.53;4989041;28;20030;-74
2022/11/02 08:13:16;;;;;;;12.98;2.15;;;;;;;11.57;100.00;155430.38;4968709;28;20038;-73
2022/11/02 08:15:42;;;;;;;10.10;1.98;;;;;;;11.57;100.00;155430.38;4989587;28;20550;-73
2022/11/02 08:18:16;;;;;;;15.98;2.30;;;;;;;11.69;100.00;155462.44;5006522;28;20029;-73
2022/11/02 08:20:41;;;;;;;11.45;2.17;;;;;;;11.78;100.00;155484.28;4990074;28;20116;-73
2022/11/02 08:23:08;;;;;;;11.82;1.90;;;;;;;11.86;100.00;155504.78;5005380;28;20487;-73
2022/11/02 08:25:34;;;;;;;14.13;2.05;;;;;;;11.86;100.00;155503.53;5019973;28;20030;-74
2022/11/02 08:28:00;;;;;;;13.85;2.65;;;;;;;11.81;100.00;155490.66;5005582;28;20444;-74
2022/11/02 08:30:28;;;;;;;15.07;2.05;;;;;;;11.86;100.00;155504.78;4973402;28;20029;-74
2022/11/02 08:32:53;;;;;;;8.80;2.20;;;;;;;11.90;100.00;155512.56;5006574;28;20034;-73
2022/11/02 08:35:22;;;;;;;13.57;2.47;;;;;;;11.99;100.00;155535.69;5004787;28;20038;-74
2022/11/02 08:37:56;;;;;;;17.45;3.00;;;;;;;12.04;100.00;155549.81;5006118;28;20103;-73
2022/11/02 08:40:22;;;;;;;11.30;2.05;;;;;;;12.17;100.00;155580.66;4979639;28;20030;-73
2022/11/02 08:42:47;;;;;;;15.75;2.20;;;;;;;12.23;100.00;155596.06;5006610;28;20765;-74
2022/11/02 08:45:13;;;;;;;14.48;2.63;;;;;;;12.22;100.00;155593.47;4996368;28;20571;-73
2022/11/02 08:47:40;;;;;;;12.60;2.10;;;;;;;12.27;100.00;155607.59;5008114;28;20030;-73
2022/11/02 08:50:07;;;;;;;13.02;2.15;;;;;;;12.23;100.00;155596.06;5011180;28;20037;-73
2022/11/02 08:52:37;;;;;;;14.32;2.85;;;;;;;12.37;100.00;155630.72;5006342;28;20108;-73
2022/11/02 08:55:03;;;;;;;12.25;2.28;;;;;;;12.43;100.00;155647.44;5006759;28;20096;-73
2022/11/02 08:57:29;;;;;;;12.15;1.95;;;;;;;12.62;100.00;155694.94;5008247;28;20044;-74
2022/11/02 08:59:55;;;;;;;12.55;2.53;;;;;;;12.91;100.00;155765.59;4980371;28;20451;-74
2022/11/02 09:02:20;;;;;;;14.30;2.15;;;;;;;12.83;97.80;155747.63;5004424;28;20121;-74
2022/11/02 09:04:46;;;;;;;14.43;2.40;;;;;;;12.77;97.06;155732.22;5009436;28;20044;-73
2022/11/02 09:07:12;;;;;;;12.07;2.05;;;;;;;12.64;99.33;155698.81;5008406;28;20046;-73
2022/11/02 09:09:37;;;;;;;10.52;2.03;;;;;;;12.62;100.00;155694.94;4993761;28;20045;-73
2022/11/02 09:12:03;;;;;;;12.50;2.42;;;;;;;12.62;99.98;155694.94;4993183;28;20044;-73
2022/11/02 09:14:28;;;;;;;13.98;2.47;;;;;;;12.58;99.53;155683.38;5012125;28;20049;-73
2022/11/02 09:16:54;;;;;;;10.25;1.90;;;;;;;12.53;99.88;155670.56;4980892;28;20152;-73
2022/11/02 09:19:20;;;;;;;13.20;1.88;;;;;;;12.51;98.33;155665.38;4993339;28;20711;-73
2022/11/02 09:21:46;;;;;;;8.93;1.75;;;;;;;12.50;98.22;155664.09;4989990;28;20035;-73
2022/11/02 09:24:12;;;;;;;12.75;2.40;;;;;;;12.49;100.00;155661.56;4992131;28;20152;-73
2022/11/02 09:26:38;;;;;;;9.30;2.13;;;;;;;12.66;100.00;155705.22;4993253;28;20451;-73
2022/11/02 09:29:04;;;;;;;7.70;1.85;;;;;;;12.64;97.82;155700.09;5005709;28;20085;-73
2022/11/02 09:31:29;;;;;;;12.63;2.38;;;;;;;12.58;97.02;155683.38;5009635;28;20033;-73
2022/11/02 09:33:55;;;;;;;8.45;1.48;;;;;;;12.51;98.20;155666.69;5009497;28;20060;-72
2022/11/02 09:36:20;;;;;;;13.65;2.10;;;;;;;12.54;96.62;155674.38;5009906;28;20977;-73
2022/11/02 09:38:46;;;;;;;11.68;2.13;;;;;;;12.48;98.25;155658.97;5009656;28;20044;-73
2022/11/02 09:41:21;;;;;;;8.13;1.67;;;;;;;12.44;97.28;155648.69;4975501;28;20113;-73
2022/11/02 09:44:02;;;;;;;10.13;1.50;;;;;;;12.39;97.33;155635.84;4991564;28;20431;-72
2022/11/02 09:46:35;;;;;;;10.75;2.50;;;;;;;12.38;99.18;155633.28;4997975;28;20023;-73
2022/11/02 09:49:11;;;;;;;8.90;1.90;;;;;;;12.35;100.00;155626.84;5003733;28;20045;-73
2022/11/02 09:51:51;;;;;;;10.05;1.80;;;;;;;12.33;96.73;155621.72;4986927;28;20045;-74
2022/11/02 09:54:26;;;;;;;9.68;1.98;;;;;;;12.28;98.54;155608.84;4990156;28;20038;-74
2022/11/02 09:56:57;;;;;;;9.73;1.92;;;;;;;12.33;97.77;155621.72;4992122;28;20087;-74
2022/11/02 09:59:25;;;;;;;12.02;1.73;;;;;;;12.40;96.84;155638.44;5007943;28;20033;-72
2022/11/02 10:02:12;;;;;;;10.30;1.75;;;;;;;12.70;94.89;155714.22;5008371;28;20034;-74
2022/11/02 10:04:53;;;;;;;11.38;2.13;;;;;;;12.72;94.84;155719.34;4988428;28;20060;-73
2022/11/02 10:07:47;;;;;;;7.82;1.67;;;;;;;12.67;94.51;155706.50;4975884;28;20046;-73
2022/11/02 10:10:33;;;;;;;6.38;1.40;;;;;;;12.51;95.83;155665.38;5004214;28;20045;-72
2022/11/02 10:13:23;;;;;;;11.40;1.90;;;;;;;12.33;98.62;155621.72;4998162;28;20033;-73
2022/11/02 10:16:05;;;;;;;7.28;1.70;;;;;;;12.18;100.00;155583.19;5008614;28;20053;-73
2022/11/02 10:18:34;;;;;;;14.57;2.13;;;;;;;12.09;100.00;155561.34;5006754;28;20065;-74
2022/11/02 10:21:11;;;;;;;11.07;2.50;;;;;;;11.95;100.00;155526.69;5024521;28;20500;-75
2022/11/02 10:23:52;;;;;;;6.72;1.75;;;;;;;11.70;100.00;155463.75;4992912;28;20030;-75
2022/11/02 10:26:22;;;;;;;10.88;1.90;;;;;;;11.46;100.00;155403.41;4991453;28;20026;-75
2022/11/02 10:28:57;;;;;;;8.77;1.70;;;;;;;11.34;100.00;155372.56;4991493;28;20785;-75
2022/11/02 10:31:30;;;;;;;12.10;1.83;;;;;;;11.25;100.00;155350.78;4991485;28;20044;-75
2022/11/02 10:34:18;;;;;;;11.73;1.52;;;;;;;11.36;100.00;155379.00;4989499;28;20099;-75
2022/11/02 10:36:57;;;;;;;14.18;2.28;;;;;;;11.36;100.00;155377.69;5004395;28;20042;-74
2022/11/02 10:39:26;;;;;;;8.05;1.90;;;;;;;11.36;100.00;155379.00;5009198;28;20033;-75
2022/11/02 10:42:31;;;;;;;12.00;1.85;;;;;;;11.27;100.00;155355.91;4986285;28;20519;-75
2022/11/02 10:45:13;;;;;;;9.15;2.10;;;;;;;11.20;100.00;155337.94;5003709;28;20475;-74
2022/11/02 10:47:52;;;;;;;10.40;2.00;;;;;;;11.18;100.00;155332.81;5001217;28;20753;-73
2022/11/02 10:50:45;;;;;;;13.18;2.40;;;;;;;11.05;100.00;155301.97;4970151;28;20092;-74
2022/11/02 10:53:14;;;;;;;11.10;2.42;;;;;;;11.15;100.00;155325.09;4988870;28;20093;-74
2022/11/02 10:56:03;;;;;;;10.48;1.77;;;;;;;11.57;100.00;155431.63;5000452;28;20112;-74
2022/11/02 10:58:32;;;;;;;8.73;1.50;;;;;;;11.72;100.00;155467.59;4990271;28;20400;-74
2022/11/02 11:01:11;;;;;;;7.07;1.95;;;;;;;11.80;100.00;155489.41;4998948;28;20042;-74
2022/11/02 11:03:57;;;;;;;7.20;1.42;;;;;;;12.07;100.00;155557.53;4989457;28;20044;-73
2022/11/02 11:06:25;;;;;;;8.32;1.77;;;;;;;12.31;100.00;155615.31;4984156;28;20033;-73
2022/11/02 11:08:52;;;;;;;11.73;1.90;;;;;;;12.51;100.00;155666.69;4984718;28;20038;-74
2022/11/02 11:11:28;;;;;;;8.68;1.50;;;;;;;12.80;100.00;155738.63;4989728;28;20042;-73
2022/11/02 11:13:57;;;;;;;9.43;2.08;;;;;;;12.90;100.00;155764.28;5007054;28;20045;-73
2022/11/02 11:16:35;;;;;;;13.90;2.20;;;;;;;13.09;100.00;155811.88;4997038;28;20590;-73
2022/11/02 11:19:03;;;;;;;9.75;1.75;;;;;;;13.27;100.00;155856.81;4991050;28;20033;-73
2022/11/02 11:21:38;;;;;;;9.23;1.90;;;;;;;13.17;100.00;155832.41;4984399;28;20029;-74
2022/11/02 11:24:22;;;;;;;7.95;1.77;;;;;;;13.02;100.00;155795.16;5006833;28;20042;-73
2022/11/02 11:27:04;;;;;;;9.27;1.50;;;;;;;12.98;100.00;155784.88;4992940;28;20049;-73
2022/11/02 11:29:37;;;;;;;11.77;1.77;;;;;;;13.18;100.00;155834.97;4988438;28;20091;-73
2022/11/02 11:32:03;;;;;;;7.57;1.52;;;;;;;13.14;100.00;155823.41;5007954;28;20045;-73
2022/11/02 11:34:35;;;;;;;8.55;1.50;;;;;;;12.95;100.00;155777.16;4973223;28;20082;-73
2022/11/02 11:37:10;;;;;;;8.40;1.73;;;;;;;12.86;100.00;155754.03;4972289;28;20492;-73
2022/11/02 11:39:39;;;;;;;8.85;1.75;;;;;;;12.88;100.00;155759.16;4992089;28;20161;-73
2022/11/02 11:42:15;;;;;;;9.02;1.58;;;;;;;13.00;100.00;155790.00;4990684;28;20824;-74
2022/11/02 11:45:00;;;;;;;7.90;1.50;;;;;;;13.19;100.00;155837.56;4987515;28;20038;-73
2022/11/02 11:47:29;;;;;;;7.90;1.55;;;;;;;13.13;100.00;155820.81;4982411;28;20037;-74